Time;durP1;ratioP1;P1;durP2;ratioP2;P2;SDS_P1;SDS_P2;PMS_P1;PMS_P2;Temp;Humidity;BMP_temperature;BMP_pressure;BME280_temperature;BME280_humidity;BME280_pressure;Samples;Min_cycle;Max_cycle;Signal;HPM_P1;HPM_P2
2021/06/06 00:00:27;;;;;;;;;;;13.90;99.90;;;;;;5069184;28;20085;-90
2021/06/06 00:02:55;;;;;;;0.25;0.25;;;13.90;99.90;;;;;;5062240;28;19956;-90
2021/06/06 00:05:21;;;;;;;2.00;0.63;;;13.90;99.90;;;;;;5070847;28;20074;-89
2021/06/06 00:07:47;;;;;;;0.43;0.20;;;13.60;99.90;;;;;;5070715;28;20037;-90
2021/06/06 00:10:13;;;;;;;0.30;0.30;;;13.40;99.90;;;;;;5069054;28;20039;-90
2021/06/06 00:12:40;;;;;;;0.90;0.45;;;13.40;99.90;;;;;;5066560;28;20028;-90
2021/06/06 00:15:12;;;;;;;0.10;0.10;;;13.50;99.90;;;;;;5069783;28;20075;-90
2021/06/06 00:17:38;;;;;;;0.47;0.45;;;13.60;99.90;;;;;;5068153;28;20024;-90
2021/06/06 00:20:06;;;;;;;0.15;0.15;;;13.70;99.90;;;;;;5068629;28;20401;-90
2021/06/06 00:22:32;;;;;;;0.10;0.10;;;13.60;99.90;;;;;;5070442;28;20502;-90
2021/06/06 00:24:58;;;;;;;0.10;0.10;;;13.60;99.90;;;;;;5069290;28;20037;-90
2021/06/06 00:27:24;;;;;;;0.10;0.10;;;13.60;99.90;;;;;;5070146;28;20390;-90
2021/06/06 00:29:50;;;;;;;0.30;0.30;;;13.50;99.90;;;;;;5069643;28;20109;-90
2021/06/06 00:32:16;;;;;;;0.10;0.10;;;13.70;99.90;;;;;;5068976;28;20451;-89
2021/06/06 00:34:42;;;;;;;0.13;0.13;;;13.60;99.90;;;;;;5068018;28;20029;-89
2021/06/06 00:37:09;;;;;;;0.20;0.20;;;13.40;99.90;;;;;;5070329;28;20017;-89
2021/06/06 00:39:35;;;;;;;0.52;0.30;;;13.40;99.90;;;;;;5069210;28;20032;-88
2021/06/06 00:42:01;;;;;;;0.10;0.10;;;13.40;99.90;;;;;;5068937;28;20035;-88
2021/06/06 00:44:27;;;;;;;0.20;0.20;;;13.30;99.90;;;;;;5069646;28;20358;-89
2021/06/06 00:46:53;;;;;;;0.20;0.20;;;13.10;99.90;;;;;;5067360;28;20119;-89
2021/06/06 00:49:20;;;;;;;0.32;0.32;;;13.30;99.90;;;;;;5069770;28;20071;-89
2021/06/06 00:51:58;;;;;;;0.03;0.03;;;13.20;99.90;;;;;;5069878;28;20036;-90
2021/06/06 00:54:46;;;;;;;0.10;0.10;;;13.10;99.90;;;;;;5067989;28;20021;-89
2021/06/06 00:57:19;;;;;;;0.10;0.10;;;13.00;99.90;;;;;;5068570;28;20040;-90
2021/06/06 00:59:50;;;;;;;0.20;0.20;;;13.00;99.90;;;;;;5068410;28;20020;-90
2021/06/06 01:02:16;;;;;;;0.15;0.15;;;13.00;99.90;;;;;;5067446;28;20038;-89
2021/06/06 01:04:43;;;;;;;0.20;0.20;;;13.00;99.90;;;;;;5069796;28;20024;-90
2021/06/06 01:07:09;;;;;;;0.15;0.15;;;12.80;99.90;;;;;;5067791;28;20036;-90
2021/06/06 01:09:36;;;;;;;0.28;0.28;;;12.90;99.90;;;;;;5069975;28;20035;-89
2021/06/06 01:12:24;;;;;;;0.20;0.20;;;13.00;99.90;;;;;;5068285;28;20042;-89
2021/06/06 01:14:52;;;;;;;0.10;0.10;;;13.10;99.90;;;;;;5069085;28;20451;-89
2021/06/06 01:17:29;;;;;;;0.00;0.00;;;12.80;99.90;;;;;;5068013;28;20033;-88
2021/06/06 01:20:13;;;;;;;0.10;0.10;;;12.70;99.90;;;;;;5069446;28;20031;-90
2021/06/06 01:22:41;;;;;;;0.10;0.10;;;12.70;99.90;;;;;;5069909;28;20102;-89
2021/06/06 01:25:16;;;;;;;0.10;0.10;;;12.60;99.90;;;;;;5068777;28;20066;-92
2021/06/06 01:27:49;;;;;;;0.15;0.15;;;13.00;99.90;;;;;;5068965;28;20493;-90
2021/06/06 01:30:45;;;;;;;0.57;0.57;;;13.00;99.90;;;;;;5068494;28;20529;-91
2021/06/06 01:33:38;;;;;;;0.00;0.00;;;12.90;99.90;;;;;;5066385;28;20043;-90
2021/06/06 01:36:17;;;;;;;0.10;0.10;;;12.80;99.90;;;;;;5060462;28;20033;-90
2021/06/06 01:38:55;;;;;;;0.10;0.10;;;12.70;99.90;;;;;;5062767;28;20115;-91
2021/06/06 01:41:27;;;;;;;0.25;0.25;;;12.90;99.90;;;;;;5074980;28;20110;-89
2021/06/06 01:43:56;;;;;;;0.17;0.17;;;13.00;99.90;;;;;;5068118;28;20090;-89
2021/06/06 01:46:49;;;;;;;0.30;0.30;;;12.90;99.90;;;;;;5068003;28;20095;-89
2021/06/06 01:49:16;;;;;;;0.10;0.10;;;12.70;99.90;;;;;;5068669;28;20024;-89
2021/06/06 01:51:46;;;;;;;0.10;0.10;;;12.60;99.90;;;;;;5068834;28;20127;-89
2021/06/06 01:54:16;;;;;;;0.10;0.10;;;12.70;99.90;;;;;;5067295;28;20739;-91
2021/06/06 01:56:46;;;;;;;0.10;0.10;;;12.50;99.90;;;;;;5067016;28;20020;-90
2021/06/06 01:59:21;;;;;;;0.10;0.10;;;12.50;99.90;;;;;;5067231;28;20031;-90
2021/06/06 02:01:47;;;;;;;0.05;0.05;;;12.50;99.90;;;;;;5067845;28;20527;-89
2021/06/06 02:04:13;;;;;;;0.10;0.10;;;12.40;99.90;;;;;;5068009;28;20111;-89
2021/06/06 02:06:46;;;;;;;0.10;0.10;;;12.30;99.90;;;;;;5067071;28;20033;-90
2021/06/06 02:09:17;;;;;;;0.10;0.10;;;12.20;99.90;;;;;;5065404;28;20425;-91
2021/06/06 02:11:51;;;;;;;0.10;0.10;;;12.30;99.90;;;;;;5070225;28;20409;-91
2021/06/06 02:14:22;;;;;;;0.30;0.30;;;12.30;99.90;;;;;;5067884;28;20032;-90
2021/06/06 02:16:54;;;;;;;0.20;0.20;;;12.20;99.90;;;;;;5067846;28;20029;-90
2021/06/06 02:19:24;;;;;;;0.10;0.10;;;12.20;99.90;;;;;;5067929;28;20115;-90
2021/06/06 02:21:52;;;;;;;0.10;0.10;;;12.20;99.90;;;;;;5068590;28;20025;-90
2021/06/06 02:24:19;;;;;;;0.40;0.40;;;12.20;99.90;;;;;;5067475;28;20040;-90
2021/06/06 02:27:08;;;;;;;0.15;0.15;;;12.20;99.90;;;;;;5066337;28;20127;-89
2021/06/06 02:29:53;;;;;;;0.32;0.32;;;12.30;99.90;;;;;;5066157;28;20048;-89
2021/06/06 02:32:28;;;;;;;0.80;0.30;;;12.30;99.90;;;;;;5068020;28;20021;-91
2021/06/06 02:35:01;;;;;;;0.00;0.00;;;12.20;99.90;;;;;;5066890;28;20025;-90
2021/06/06 02:37:30;;;;;;;0.10;0.10;;;12.10;99.90;;;;;;5066788;28;20409;-90
2021/06/06 02:40:05;;;;;;;0.10;0.10;;;12.00;99.90;;;;;;5068042;28;20055;-90
2021/06/06 02:42:36;;;;;;;0.25;0.25;;;11.90;99.90;;;;;;5064690;28;20398;-91
2021/06/06 02:45:14;;;;;;;0.10;0.10;;;12.00;99.90;;;;;;5072525;28;20029;-91
2021/06/06 02:47:41;;;;;;;0.10;0.10;;;12.10;99.90;;;;;;5064751;28;20471;-91
2021/06/06 02:50:09;;;;;;;;;;;12.10;99.90;;;;;;5071651;28;20743;-91
2021/06/06 02:53:14;;;;;;;0.30;0.30;;;12.10;99.90;;;;;;5070014;28;20424;-90
2021/06/06 02:55:44;;;;;;;0.10;0.10;;;12.30;99.90;;;;;;5070462;28;20136;-90
2021/06/06 02:58:19;;;;;;;0.10;0.10;;;12.10;99.90;;;;;;5070098;28;20448;-90
2021/06/06 03:01:02;;;;;;;0.10;0.10;;;12.00;99.90;;;;;;5071717;28;20548;-90
2021/06/06 03:03:34;;;;;;;0.20;0.20;;;12.00;99.90;;;;;;5068642;28;20039;-91
2021/06/06 03:06:04;;;;;;;0.10;0.10;;;12.00;99.90;;;;;;5071122;28;20032;-90
2021/06/06 03:08:30;;;;;;;0.10;0.10;;;11.80;99.90;;;;;;5071763;28;20024;-90
2021/06/06 03:10:57;;;;;;;0.00;0.00;;;11.80;99.90;;;;;;5069485;28;20132;-91
2021/06/06 03:13:29;;;;;;;;;;;11.80;99.90;;;;;;5070176;28;20035;-90
2021/06/06 03:15:59;;;;;;;0.10;0.10;;;11.80;99.90;;;;;;5069586;28;19912;-91
2021/06/06 03:18:29;;;;;;;0.43;0.40;;;11.80;99.90;;;;;;5062848;28;20086;-90
2021/06/06 03:21:08;;;;;;;0.10;0.10;;;11.70;99.90;;;;;;5070974;28;20375;-91
2021/06/06 03:23:36;;;;;;;0.10;0.10;;;11.80;99.90;;;;;;5068931;28;20024;-91
2021/06/06 03:26:07;;;;;;;0.17;0.17;;;11.90;99.90;;;;;;5065628;28;20051;-91
2021/06/06 03:28:36;;;;;;;0.10;0.10;;;11.80;99.90;;;;;;5065210;28;20039;-91
2021/06/06 03:31:08;;;;;;;0.10;0.10;;;11.70;99.90;;;;;;5068555;28;20076;-91
2021/06/06 03:33:49;;;;;;;0.20;0.20;;;11.70;99.90;;;;;;5070842;28;20029;-90
2021/06/06 03:36:20;;;;;;;0.10;0.10;;;11.80;99.90;;;;;;5062644;28;20284;-91
2021/06/06 03:38:46;;;;;;;0.35;0.30;;;11.80;99.90;;;;;;5069885;28;20024;-91
2021/06/06 03:41:12;;;;;;;0.10;0.10;;;11.60;99.90;;;;;;5069229;28;20441;-89
2021/06/06 03:43:37;;;;;;;0.00;0.00;;;11.50;99.90;;;;;;5068926;28;20036;-90
2021/06/06 03:46:04;;;;;;;0.08;0.08;;;11.50;99.90;;;;;;5069108;28;20039;-90
2021/06/06 03:48:31;;;;;;;0.03;0.03;;;11.60;99.90;;;;;;5067918;28;20033;-91
2021/06/06 03:50:57;;;;;;;0.10;0.10;;;11.50;99.90;;;;;;5069009;28;20037;-91
2021/06/06 03:53:24;;;;;;;0.03;0.03;;;11.50;99.90;;;;;;5060084;28;20090;-91
2021/06/06 03:55:50;;;;;;;0.50;0.50;;;11.60;99.90;;;;;;5064377;28;20043;-89
2021/06/06 03:58:17;;;;;;;0.10;0.10;;;12.00;99.90;;;;;;5070409;28;20764;-89
2021/06/06 04:00:47;;;;;;;0.15;0.15;;;12.10;99.90;;;;;;5069970;28;20053;-89
2021/06/06 04:03:14;;;;;;;0.00;0.00;;;11.80;99.90;;;;;;5070069;28;20044;-89
2021/06/06 04:05:40;;;;;;;0.10;0.10;;;11.60;99.90;;;;;;5069874;28;20036;-89
2021/06/06 04:08:07;;;;;;;0.30;0.30;;;11.70;99.90;;;;;;5069918;28;20028;-89
2021/06/06 04:10:34;;;;;;;1.05;0.98;;;11.80;99.90;;;;;;5070664;28;20278;-91
2021/06/06 04:13:00;;;;;;;0.75;0.55;;;11.90;99.90;;;;;;5069463;28;20048;-90
2021/06/06 04:15:26;;;;;;;0.20;0.20;;;11.70;99.90;;;;;;5068463;28;20054;-89
2021/06/06 04:17:52;;;;;;;0.10;0.10;;;11.50;99.90;;;;;;5068381;28;20118;-90
2021/06/06 04:20:19;;;;;;;0.10;0.10;;;11.60;99.90;;;;;;5068931;28;20056;-88
2021/06/06 04:22:45;;;;;;;0.20;0.20;;;12.10;99.90;;;;;;5067908;28;20378;-89
2021/06/06 04:25:13;;;;;;;0.00;0.00;;;13.00;99.90;;;;;;5068649;28;20040;-89
2021/06/06 04:27:38;;;;;;;0.60;0.22;;;13.50;99.90;;;;;;5066945;28;20551;-90
2021/06/06 04:30:07;;;;;;;0.10;0.10;;;14.20;99.90;;;;;;5067660;28;20061;-91
2021/06/06 04:32:33;;;;;;;0.30;0.20;;;14.70;99.90;;;;;;5067742;28;20060;-91
2021/06/06 04:34:59;;;;;;;0.07;0.07;;;15.30;99.90;;;;;;5070622;28;20401;-92
2021/06/06 04:37:25;;;;;;;0.13;0.13;;;16.00;99.90;;;;;;5069949;28;20021;-92
2021/06/06 04:39:51;;;;;;;0.10;0.10;;;16.00;99.90;;;;;;5071093;28;20447;-90
2021/06/06 04:42:19;;;;;;;0.40;0.40;;;16.40;99.90;;;;;;5069230;28;20025;-90
2021/06/06 04:44:45;;;;;;;0.10;0.10;;;16.40;99.90;;;;;;5069908;28;20810;-88
2021/06/06 04:47:12;;;;;;;0.60;0.20;;;16.10;99.90;;;;;;5070160;28;20039;-89
2021/06/06 04:49:45;;;;;;;0.08;0.08;;;17.50;99.90;;;;;;5069157;28;20290;-89
2021/06/06 04:52:18;;;;;;;0.10;0.10;;;17.60;99.90;;;;;;5068646;28;20032;-90
2021/06/06 04:54:44;;;;;;;0.10;0.10;;;17.80;99.90;;;;;;5067245;28;20025;-90
2021/06/06 04:57:10;;;;;;;0.10;0.10;;;18.60;99.90;;;;;;5069365;28;20379;-90
2021/06/06 04:59:37;;;;;;;0.52;0.52;;;18.80;99.90;;;;;;5067440;28;20710;-90
2021/06/06 05:02:09;;;;;;;0.00;0.00;;;19.60;99.90;;;;;;5058659;28;20037;-91
2021/06/06 05:04:35;;;;;;;0.00;0.00;;;20.10;99.90;;;;;;5069894;28;20035;-89
2021/06/06 05:07:02;;;;;;;0.00;0.00;;;20.70;99.90;;;;;;5067769;28;20052;-91
2021/06/06 05:09:28;;;;;;;0.15;0.15;;;20.60;99.90;;;;;;5069496;28;20520;-92
2021/06/06 05:11:53;;;;;;;0.00;0.00;;;19.40;99.90;;;;;;5067489;28;20032;-90
2021/06/06 05:14:19;;;;;;;0.00;0.00;;;19.90;99.90;;;;;;5066728;28;20480;-92
2021/06/06 05:16:45;;;;;;;0.00;0.00;;;19.70;99.90;;;;;;5067585;28;20021;-90
2021/06/06 05:19:12;;;;;;;0.07;0.07;;;20.20;99.90;;;;;;5066523;28;20405;-90
2021/06/06 05:21:39;;;;;;;0.00;0.00;;;19.00;99.90;;;;;;5067175;28;20036;-90
2021/06/06 05:24:05;;;;;;;0.20;0.10;;;19.50;99.90;;;;;;5066910;28;20032;-89
2021/06/06 05:26:30;;;;;;;0.00;0.00;;;20.80;99.40;;;;;;5058025;28;20082;-88
2021/06/06 05:28:57;;;;;;;0.10;0.10;;;21.70;98.20;;;;;;5066992;28;20502;-91
2021/06/06 05:31:23;;;;;;;0.10;0.10;;;20.90;97.40;;;;;;5066641;28;20354;-91
2021/06/06 05:33:49;;;;;;;0.00;0.00;;;21.10;96.90;;;;;;5066805;28;20512;-90
2021/06/06 05:36:16;;;;;;;0.10;0.10;;;20.80;96.60;;;;;;5066728;28;20029;-90
2021/06/06 05:38:42;;;;;;;0.00;0.00;;;21.30;97.00;;;;;;5067270;28;20528;-90
2021/06/06 05:41:10;;;;;;;0.00;0.00;;;21.50;96.40;;;;;;5066941;28;20020;-90
2021/06/06 05:43:37;;;;;;;0.00;0.00;;;21.80;95.10;;;;;;5067174;28;20059;-90
2021/06/06 05:46:03;;;;;;;0.00;0.00;;;21.70;95.40;;;;;;5068481;28;20029;-90
2021/06/06 05:48:29;;;;;;;0.28;0.28;;;20.70;95.60;;;;;;5066155;28;20046;-90
2021/06/06 05:50:59;;;;;;;0.75;0.20;;;20.10;96.20;;;;;;5068805;28;20032;-90
2021/06/06 05:53:25;;;;;;;0.00;0.00;;;20.70;95.10;;;;;;5066863;28;20098;-89
2021/06/06 05:55:51;;;;;;;;;;;21.40;94.90;;;;;;5068288;28;20433;-88
2021/06/06 05:58:17;;;;;;;;;;;20.70;95.70;;;;;;5066998;28;20445;-87
2021/06/06 06:00:45;;;;;;;0.00;0.00;;;21.40;96.40;;;;;;5067604;28;20332;-87
2021/06/06 06:03:13;;;;;;;1.17;0.50;;;23.30;95.10;;;;;;5069224;28;20107;-87
2021/06/06 06:05:39;;;;;;;0.10;0.10;;;23.70;93.70;;;;;;5068187;28;20489;-89
2021/06/06 06:08:19;;;;;;;2.90;0.98;;;23.90;92.30;;;;;;5067409;28;20043;-87
2021/06/06 06:10:47;;;;;;;0.00;0.00;;;21.20;93.20;;;;;;5057500;28;20421;-87
2021/06/06 06:13:14;;;;;;;0.10;0.10;;;21.00;93.50;;;;;;5067696;28;20452;-88
2021/06/06 06:15:40;;;;;;;0.10;0.00;;;20.70;94.80;;;;;;5069016;28;20024;-87
2021/06/06 06:18:06;;;;;;;;;;;20.50;94.50;;;;;;5070933;28;20021;-88
2021/06/06 06:20:31;;;;;;;;;;;21.10;95.10;;;;;;5071676;28;19974;-88
2021/06/06 06:22:57;;;;;;;0.00;0.00;;;21.70;94.80;;;;;;5072621;28;19998;-88
2021/06/06 06:25:23;;;;;;;0.00;0.00;;;21.40;94.80;;;;;;5071690;28;20784;-89
2021/06/06 06:27:49;;;;;;;0.00;0.00;;;22.20;93.80;;;;;;5072601;28;20036;-88
2021/06/06 06:30:23;;;;;;;0.10;0.10;;;22.20;93.40;;;;;;5071952;28;20049;-88
2021/06/06 06:32:49;;;;;;;0.00;0.00;;;22.10;93.10;;;;;;5071587;28;20090;-88
2021/06/06 06:35:15;;;;;;;0.08;0.08;;;22.00;94.00;;;;;;5071936;28;20024;-88
2021/06/06 06:37:40;;;;;;;0.28;0.10;;;22.10;94.40;;;;;;5071708;28;20037;-88
2021/06/06 06:40:11;;;;;;;0.70;0.08;;;22.90;93.60;;;;;;5071480;28;20027;-87
2021/06/06 06:42:37;;;;;;;0.47;0.22;;;22.80;93.80;;;;;;5072480;28;20079;-89
2021/06/06 06:45:06;;;;;;;0.10;0.10;;;21.80;92.50;;;;;;5072188;28;20054;-89
2021/06/06 06:47:32;;;;;;;0.00;0.00;;;22.60;92.70;;;;;;5071347;28;20028;-91
2021/06/06 06:49:58;;;;;;;0.30;0.30;;;22.70;92.80;;;;;;5071150;28;20089;-90
2021/06/06 06:52:24;;;;;;;0.43;0.10;;;23.10;91.50;;;;;;5072013;28;20444;-89
2021/06/06 06:54:50;;;;;;;0.38;0.38;;;22.60;91.30;;;;;;5074123;28;20425;-89
2021/06/06 06:57:16;;;;;;;0.10;0.10;;;23.10;90.20;;;;;;5071757;28;20036;-87
2021/06/06 06:59:42;;;;;;;;;;;23.00;91.90;;;;;;5072498;28;20048;-90
2021/06/06 07:02:08;;;;;;;0.15;0.15;;;23.50;90.50;;;;;;5071110;28;19936;-91
2021/06/06 07:04:34;;;;;;;;;;;23.70;88.60;;;;;;5071755;28;20028;-90
2021/06/06 07:07:00;;;;;;;0.00;0.00;;;23.90;90.40;;;;;;5072891;28;19904;-91
2021/06/06 07:09:26;;;;;;;0.08;0.08;;;24.00;88.10;;;;;;5075059;28;20108;-92
2021/06/06 07:11:57;;;;;;;0.00;0.00;;;25.10;88.60;;;;;;5075074;28;20032;-90
2021/06/06 07:14:24;;;;;;;0.20;0.10;;;24.80;82.70;;;;;;5074659;28;20013;-93
2021/06/06 07:16:50;;;;;;;;;;;26.90;80.70;;;;;;5075431;28;20029;-93
2021/06/06 07:19:16;;;;;;;0.20;0.20;;;26.60;82.20;;;;;;5074350;28;19904;-94
2021/06/06 07:21:41;;;;;;;0.17;0.08;;;26.00;78.00;;;;;;5073845;28;20409;-92
2021/06/06 07:24:07;;;;;;;0.13;0.13;;;26.20;90.00;;;;;;5073998;28;20619;-91
2021/06/06 07:26:35;;;;;;;;;;;26.20;78.40;;;;;;5072348;28;20436;-91
2021/06/06 07:29:04;;;;;;;0.00;0.00;;;25.30;78.00;;;;;;5071260;28;19958;-89
2021/06/06 07:31:30;;;;;;;0.00;0.00;;;24.80;77.30;;;;;;5070342;28;20398;-89
2021/06/06 07:33:56;;;;;;;0.00;0.00;;;25.60;76.70;;;;;;5070091;28;20508;-88
2021/06/06 07:36:23;;;;;;;0.17;0.17;;;26.00;80.90;;;;;;5073030;28;20024;-89
2021/06/06 07:38:50;;;;;;;0.98;0.50;;;25.80;74.10;;;;;;5072643;28;20032;-88
2021/06/06 07:41:18;;;;;;;0.73;0.20;;;26.60;76.60;;;;;;5071835;28;20025;-89
2021/06/06 07:43:43;;;;;;;0.80;0.73;;;29.00;71.70;;;;;;5073167;28;20032;-90
2021/06/06 07:46:10;;;;;;;;;;;29.40;64.50;;;;;;5072356;28;20032;-89
2021/06/06 07:48:35;;;;;;;0.03;0.03;;;28.90;57.80;;;;;;5072237;28;19908;-90
2021/06/06 07:51:02;;;;;;;;;;;30.30;58.40;;;;;;5071630;28;20036;-90
2021/06/06 07:53:27;;;;;;;0.00;0.00;;;29.50;60.20;;;;;;5072266;28;20301;-91
2021/06/06 07:55:55;;;;;;;0.75;0.30;;;31.00;56.40;;;;;;5070777;28;20028;-89
2021/06/06 07:58:27;;;;;;;0.00;0.00;;;30.10;57.10;;;;;;5068152;28;20821;-89
2021/06/06 08:00:53;;;;;;;1.08;0.38;;;30.60;54.20;;;;;;5050412;28;20028;-89
2021/06/06 08:03:20;;;;;;;0.00;0.00;;;28.60;56.40;;;;;;5056539;28;20024;-88
2021/06/06 08:05:47;;;;;;;0.00;0.00;;;30.60;52.50;;;;;;5063315;28;20087;-88
2021/06/06 08:08:14;;;;;;;0.10;0.10;;;31.80;51.30;;;;;;5050703;28;20445;-88
2021/06/06 08:10:46;;;;;;;0.00;0.00;;;31.40;47.40;;;;;;5065671;28;20028;-88
2021/06/06 08:13:13;;;;;;;0.13;0.13;;;31.90;46.00;;;;;;5090953;28;20024;-88
2021/06/06 08:15:40;;;;;;;0.10;0.10;;;29.90;55.40;;;;;;5091347;28;20036;-89
2021/06/06 08:18:08;;;;;;;0.03;0.03;;;30.80;51.70;;;;;;5092201;28;20035;-90
2021/06/06 08:20:43;;;;;;;0.08;0.05;;;31.20;48.00;;;;;;5081657;28;20029;-90
2021/06/06 08:23:10;;;;;;;0.03;0.03;;;32.90;43.00;;;;;;5068650;28;20103;-89
2021/06/06 08:25:41;;;;;;;0.00;0.00;;;32.00;47.40;;;;;;5057145;28;20573;-90
2021/06/06 08:28:08;;;;;;;0.00;0.00;;;29.00;50.80;;;;;;5044376;28;20024;-90
2021/06/06 08:30:53;;;;;;;0.10;0.10;;;29.30;49.60;;;;;;5060946;28;20044;-89
2021/06/06 08:33:21;;;;;;;;;;;29.50;47.40;;;;;;5070094;28;20020;-90
2021/06/06 08:35:50;;;;;;;0.00;0.00;;;31.10;43.00;;;;;;5069955;28;19992;-90
2021/06/06 08:38:16;;;;;;;0.00;0.00;;;28.80;47.20;;;;;;5070969;28;20020;-90
2021/06/06 08:40:54;;;;;;;0.00;0.00;;;30.00;45.90;;;;;;5072094;28;20030;-89
2021/06/06 08:43:26;;;;;;;0.10;0.10;;;31.10;47.50;;;;;;5054403;28;20086;-88
2021/06/06 08:45:59;;;;;;;0.00;0.00;;;31.20;44.80;;;;;;5059064;28;21451;-88
2021/06/06 08:48:29;;;;;;;0.00;0.00;;;27.30;50.10;;;;;;5058921;28;20032;-88
2021/06/06 08:51:11;;;;;;;0.00;0.00;;;26.90;49.60;;;;;;5066739;28;20740;-89
2021/06/06 08:53:49;;;;;;;0.10;0.10;;;28.50;49.40;;;;;;5062825;28;20055;-89
2021/06/06 08:56:36;;;;;;;0.47;0.10;;;29.30;49.10;;;;;;5054307;28;20021;-90
2021/06/06 08:59:18;;;;;;;0.10;0.10;;;29.60;48.90;;;;;;5061395;28;20024;-90
2021/06/06 09:02:29;;;;;;;0.00;0.00;;;31.40;41.00;;;;;;5055631;28;20047;-91
2021/06/06 09:04:55;;;;;;;0.00;0.00;;;28.50;46.60;;;;;;5058855;28;20035;-91
2021/06/06 09:07:36;;;;;;;;;;;27.60;48.30;;;;;;5052517;28;20017;-91
2021/06/06 09:10:30;;;;;;;0.00;0.00;;;27.70;51.00;;;;;;5055336;28;19995;-90
2021/06/06 09:12:58;;;;;;;0.00;0.00;;;27.70;48.30;;;;;;5053018;28;20118;-90
2021/06/06 09:15:26;;;;;;;0.20;0.10;;;28.60;47.60;;;;;;5053219;28;20021;-90
2021/06/06 09:17:58;;;;;;;0.10;0.10;;;27.70;48.90;;;;;;5066666;28;20024;-90
2021/06/06 09:20:41;;;;;;;0.00;0.00;;;27.70;46.50;;;;;;5071450;28;20375;-90
2021/06/06 09:23:07;;;;;;;0.05;0.05;;;27.10;50.50;;;;;;5071467;28;20035;-91
2021/06/06 09:25:36;;;;;;;0.10;0.10;;;28.10;48.60;;;;;;5071569;28;20025;-91
2021/06/06 09:28:07;;;;;;;0.00;0.00;;;28.50;45.80;;;;;;5071615;28;20068;-91
2021/06/06 09:30:35;;;;;;;0.00;0.00;;;28.30;43.70;;;;;;5071522;28;20513;-90
2021/06/06 09:33:13;;;;;;;0.00;0.00;;;29.20;54.20;;;;;;5072736;28;20127;-91
2021/06/06 09:35:54;;;;;;;0.00;0.00;;;29.10;40.80;;;;;;5072698;28;20020;-91
2021/06/06 09:38:39;;;;;;;0.17;0.10;;;29.70;42.50;;;;;;5071565;28;20027;-89
2021/06/06 09:41:14;;;;;;;0.00;0.00;;;29.50;45.10;;;;;;5058014;28;20021;-90
2021/06/06 09:43:41;;;;;;;0.70;0.10;;;28.80;43.90;;;;;;5066033;28;20060;-89
2021/06/06 09:46:18;;;;;;;0.17;0.10;;;28.40;42.60;;;;;;5062254;28;20069;-89
2021/06/06 09:48:46;;;;;;;0.28;0.10;;;27.30;41.60;;;;;;5062496;28;20102;-89
2021/06/06 09:51:27;;;;;;;0.20;0.20;;;29.10;41.80;;;;;;5061779;28;20036;-89
2021/06/06 09:53:57;;;;;;;0.00;0.00;;;28.00;44.70;;;;;;5058417;28;20029;-89
2021/06/06 09:56:32;;;;;;;0.00;0.00;;;29.60;39.40;;;;;;5051470;28;20495;-88
2021/06/06 09:59:27;;;;;;;0.00;0.00;;;29.00;42.60;;;;;;5059033;28;20040;-89
2021/06/06 10:02:05;;;;;;;;;;;29.40;40.40;;;;;;5061856;28;20032;-91
2021/06/06 10:04:33;;;;;;;0.00;0.00;;;29.60;42.10;;;;;;5060944;28;19911;-89
2021/06/06 10:07:28;;;;;;;0.00;0.00;;;32.10;35.00;;;;;;5063830;28;20538;-90
2021/06/06 10:09:56;;;;;;;0.00;0.00;;;30.10;38.40;;;;;;5065445;28;20082;-93
2021/06/06 10:12:42;;;;;;;0.10;0.00;;;28.60;37.90;;;;;;5056295;28;20033;-91
2021/06/06 10:15:29;;;;;;;0.20;0.20;;;28.50;42.30;;;;;;5070177;28;20031;-92
2021/06/06 10:18:05;;;;;;;0.30;0.25;;;31.00;33.90;;;;;;5069329;28;20111;-94
2021/06/06 10:20:35;;;;;;;0.30;0.30;;;31.20;32.60;;;;;;5065396;28;20056;-93
2021/06/06 10:23:13;;;;;;;0.00;0.00;;;31.60;33.80;;;;;;5062790;28;20454;-91
2021/06/06 10:25:54;;;;;;;0.00;0.00;;;31.30;33.80;;;;;;5074009;28;20020;-94
2021/06/06 10:28:38;;;;;;;0.00;0.00;;;32.30;31.40;;;;;;5075184;28;20071;-94
2021/06/06 10:31:14;;;;;;;0.00;0.00;;;26.80;37.60;;;;;;5060321;28;20072;-92
2021/06/06 10:33:50;;;;;;;6.20;0.57;;;23.60;46.30;;;;;;5067687;28;20444;-91
2021/06/06 10:36:22;;;;;;;0.00;0.00;;;24.80;47.20;;;;;;5067252;28;20024;-93
2021/06/06 10:38:48;;;;;;;0.20;0.20;;;24.00;46.90;;;;;;5070777;28;20043;-94
2021/06/06 10:41:32;;;;;;;0.10;0.10;;;24.40;45.70;;;;;;5069396;28;20047;-92
2021/06/06 10:44:18;;;;;;;0.00;0.00;;;30.30;32.30;;;;;;5067767;28;20468;-92
2021/06/06 10:47:07;;;;;;;0.08;0.08;;;30.90;35.30;;;;;;5069034;28;20111;-92
2021/06/06 10:49:38;;;;;;;0.10;0.10;;;29.60;42.50;;;;;;5068141;28;20116;-94
2021/06/06 10:52:24;;;;;;;0.00;0.00;;;25.90;39.40;;;;;;5070327;28;20516;-91
2021/06/06 10:54:54;;;;;;;0.00;0.00;;;25.30;43.00;;;;;;5061150;28;20409;-92
2021/06/06 10:57:26;;;;;;;0.03;0.03;;;25.30;42.10;;;;;;5067089;28;20028;-90
2021/06/06 11:00:00;;;;;;;0.00;0.00;;;26.70;37.50;;;;;;5064607;28;20029;-91
2021/06/06 11:02:39;;;;;;;0.10;0.00;;;26.30;58.00;;;;;;5068483;28;20048;-91
2021/06/06 11:05:08;;;;;;;0.52;0.38;;;28.60;41.80;;;;;;5071255;28;20025;-91
2021/06/06 11:07:40;;;;;;;0.00;0.00;;;31.20;36.90;;;;;;5066490;28;20075;-90
2021/06/06 11:10:21;;;;;;;1.10;0.52;;;30.70;36.30;;;;;;5067012;28;20120;-90
2021/06/06 11:12:52;;;;;;;0.00;0.00;;;30.70;34.60;;;;;;5068098;28;20020;-89
2021/06/06 11:15:30;;;;;;;0.00;0.00;;;29.90;35.20;;;;;;5073214;28;20078;-89
2021/06/06 11:18:18;;;;;;;0.17;0.17;;;28.30;32.90;;;;;;5068168;28;20036;-90
2021/06/06 11:20:59;;;;;;;0.00;0.00;;;28.80;35.50;;;;;;5062649;28;20021;-89
2021/06/06 11:23:41;;;;;;;0.20;0.20;;;24.70;51.70;;;;;;5057799;28;20033;-88
2021/06/06 11:26:35;;;;;;;0.10;0.10;;;23.80;41.90;;;;;;5054254;28;20751;-89
2021/06/06 11:29:18;;;;;;;0.03;0.00;;;24.60;40.90;;;;;;5057746;28;20508;-89
2021/06/06 11:32:17;;;;;;;0.00;0.00;;;24.80;41.00;;;;;;5063876;28;20040;-89
2021/06/06 11:35:05;;;;;;;0.00;0.00;;;25.50;39.40;;;;;;5068868;28;20119;-91
2021/06/06 11:37:44;;;;;;;0.00;0.00;;;25.00;39.40;;;;;;5069389;28;20481;-90
2021/06/06 11:40:28;;;;;;;0.10;0.10;;;24.60;42.30;;;;;;5063908;28;20036;-90
2021/06/06 11:43:09;;;;;;;0.00;0.00;;;23.70;46.80;;;;;;5060943;28;20056;-90
2021/06/06 11:45:42;;;;;;;0.00;0.00;;;23.90;45.20;;;;;;5072994;28;20115;-92
2021/06/06 11:48:25;;;;;;;0.00;0.00;;;23.90;45.90;;;;;;5074336;28;20036;-93
2021/06/06 11:50:56;;;;;;;0.03;0.03;;;24.00;45.30;;;;;;5074075;28;20025;-93
2021/06/06 11:53:25;;;;;;;0.03;0.03;;;24.00;44.60;;;;;;5074079;28;20044;-94
2021/06/06 11:56:17;;;;;;;0.00;0.00;;;24.70;43.20;;;;;;5063020;28;20371;-95
2021/06/06 11:59:19;;;;;;;0.03;0.03;;;25.00;42.00;;;;;;5054354;28;20025;-93
2021/06/06 12:01:56;;;;;;;0.00;0.00;;;24.60;43.40;;;;;;5047058;28;20123;-95
2021/06/06 12:04:35;;;;;;;0.10;0.10;;;24.70;42.00;;;;;;5053345;28;20029;-94
2021/06/06 12:07:27;;;;;;;0.00;0.00;;;24.60;43.00;;;;;;5053878;28;20032;-92
2021/06/06 12:09:56;;;;;;;0.05;0.05;;;25.00;43.70;;;;;;5054478;28;20112;-92
2021/06/06 12:12:36;;;;;;;0.00;0.00;;;24.30;45.50;;;;;;5073077;28;20020;-92
2021/06/06 12:15:05;;;;;;;0.00;0.00;;;24.40;44.50;;;;;;5072040;28;20512;-93
2021/06/06 12:17:31;;;;;;;0.00;0.00;;;24.70;44.70;;;;;;5073491;28;20095;-91
2021/06/06 12:19:59;;;;;;;0.20;0.20;;;24.40;42.50;;;;;;5074047;28;20042;-95
2021/06/06 12:22:29;;;;;;;0.05;0.05;;;24.60;43.10;;;;;;5075669;28;20048;-95
2021/06/06 12:25:00;;;;;;;0.00;0.00;;;24.80;43.90;;;;;;5074275;28;20508;-93
2021/06/06 12:27:27;;;;;;;0.10;0.00;;;24.70;43.40;;;;;;5074045;28;20024;-91
2021/06/06 12:29:57;;;;;;;0.30;0.20;;;25.00;43.40;;;;;;5074083;28;20135;-92
2021/06/06 12:32:29;;;;;;;0.00;0.00;;;24.80;43.90;;;;;;5072797;28;20024;-91
2021/06/06 12:34:56;;;;;;;0.00;0.00;;;24.70;42.00;;;;;;5052747;28;20025;-92
2021/06/06 12:37:31;;;;;;;0.00;0.00;;;24.90;41.40;;;;;;5075498;28;20032;-96
2021/06/06 12:40:02;;;;;;;0.22;0.22;;;25.30;41.50;;;;;;5074594;28;20096;-95
2021/06/06 12:42:32;;;;;;;0.10;0.10;;;25.00;42.30;;;;;;5085909;28;20017;-96
2021/06/06 12:45:32;;;;;;;0.38;0.32;;;24.50;42.00;;;;;;5072267;28;20053;-96
2021/06/06 12:48:24;;;;;;;0.00;0.00;;;24.60;42.50;;;;;;5089103;28;20033;-96
2021/06/06 12:51:22;;;;;;;0.00;0.00;;;24.30;43.90;;;;;;5067146;28;20033;-96
2021/06/06 12:53:50;;;;;;;0.10;0.10;;;23.90;44.30;;;;;;5068753;28;20037;-96
2021/06/06 12:56:31;;;;;;;0.10;0.10;;;24.30;44.20;;;;;;5071706;28;20021;-96
2021/06/06 12:59:32;;;;;;;0.00;0.00;;;25.90;41.90;;;;;;5089349;28;20025;-95
2021/06/06 13:02:19;;;;;;;0.10;0.00;;;25.50;41.40;;;;;;5056517;28;20032;-96
2021/06/06 13:04:47;;;;;;;0.20;0.20;;;23.70;45.90;;;;;;5070948;28;20029;-96
2021/06/06 13:07:30;;;;;;;0.10;0.10;;;23.70;45.80;;;;;;5074867;28;20023;-95
2021/06/06 13:09:57;;;;;;;0.43;0.20;;;23.90;44.50;;;;;;5069286;28;20472;-96
2021/06/06 13:12:25;;;;;;;0.17;0.10;;;23.60;45.60;;;;;;5081431;28;20029;-96
2021/06/06 13:15:02;;;;;;;0.80;0.10;;;23.40;46.90;;;;;;5074784;28;20077;-95